sensor_id;sensor_type;location;lat;lon;timestamp;temperature;humidity
3198;DHT22;1611;49.394;11.136;2024-01-06T00:01:53;5.40;72.30
3198;DHT22;1611;49.394;11.136;2024-01-06T00:04:20;5.40;72.60
3198;DHT22;1611;49.394;11.136;2024-01-06T00:06:47;5.40;72.60
3198;DHT22;1611;49.394;11.136;2024-01-06T00:09:13;5.40;72.80
3198;DHT22;1611;49.394;11.136;2024-01-06T00:11:40;5.30;72.40
3198;DHT22;1611;49.394;11.136;2024-01-06T00:14:07;5.30;73.00
3198;DHT22;1611;49.394;11.136;2024-01-06T00:16:35;5.20;72.70
3198;DHT22;1611;49.394;11.136;2024-01-06T00:19:01;5.20;73.00
3198;DHT22;1611;49.394;11.136;2024-01-06T00:21:28;5.20;73.30
3198;DHT22;1611;49.394;11.136;2024-01-06T00:23:55;5.20;73.20
3198;DHT22;1611;49.394;11.136;2024-01-06T00:26:22;5.10;73.50
3198;DHT22;1611;49.394;11.136;2024-01-06T00:28:49;5.10;73.50
3198;DHT22;1611;49.394;11.136;2024-01-06T00:31:15;5.20;73.70
3198;DHT22;1611;49.394;11.136;2024-01-06T00:33:44;5.20;73.30
3198;DHT22;1611;49.394;11.136;2024-01-06T00:36:10;5.20;72.60
3198;DHT22;1611;49.394;11.136;2024-01-06T00:38:37;5.20;72.60
3198;DHT22;1611;49.394;11.136;2024-01-06T00:41:04;5.20;72.70
3198;DHT22;1611;49.394;11.136;2024-01-06T00:43:30;5.20;72.80
3198;DHT22;1611;49.394;11.136;2024-01-06T00:45:57;5.20;72.90
3198;DHT22;1611;49.394;11.136;2024-01-06T00:48:24;5.30;72.30
3198;DHT22;1611;49.394;11.136;2024-01-06T00:50:52;5.30;71.80
3198;DHT22;1611;49.394;11.136;2024-01-06T00:53:19;5.20;71.80
3198;DHT22;1611;49.394;11.136;2024-01-06T00:55:45;5.20;71.90
3198;DHT22;1611;49.394;11.136;2024-01-06T00:58:12;5.20;72.30
3198;DHT22;1611;49.394;11.136;2024-01-06T01:00:39;5.20;72.50
3198;DHT22;1611;49.394;11.136;2024-01-06T01:03:06;5.10;72.70
3198;DHT22;1611;49.394;11.136;2024-01-06T01:05:32;5.20;72.20
3198;DHT22;1611;49.394;11.136;2024-01-06T01:08:00;5.20;72.00
3198;DHT22;1611;49.394;11.136;2024-01-06T01:10:27;5.20;72.30
3198;DHT22;1611;49.394;11.136;2024-01-06T01:12:54;5.20;72.40
3198;DHT22;1611;49.394;11.136;2024-01-06T01:15:21;5.20;72.00
3198;DHT22;1611;49.394;11.136;2024-01-06T01:17:47;5.20;72.00
3198;DHT22;1611;49.394;11.136;2024-01-06T01:20:14;5.10;72.10
3198;DHT22;1611;49.394;11.136;2024-01-06T01:22:41;5.10;72.20
3198;DHT22;1611;49.394;11.136;2024-01-06T01:25:09;5.00;72.60
3198;DHT22;1611;49.394;11.136;2024-01-06T01:27:37;5.00;72.80
3198;DHT22;1611;49.394;11.136;2024-01-06T01:30:05;5.00;72.90
3198;DHT22;1611;49.394;11.136;2024-01-06T01:32:32;4.90;73.30
3198;DHT22;1611;49.394;11.136;2024-01-06T01:34:59;5.00;73.20
3198;DHT22;1611;49.394;11.136;2024-01-06T01:37:25;5.00;73.30
3198;DHT22;1611;49.394;11.136;2024-01-06T01:39:52;5.00;73.50
3198;DHT22;1611;49.394;11.136;2024-01-06T01:42:20;5.00;73.90
3198;DHT22;1611;49.394;11.136;2024-01-06T01:44:47;5.00;73.50
3198;DHT22;1611;49.394;11.136;2024-01-06T01:47:14;5.00;73.50
3198;DHT22;1611;49.394;11.136;2024-01-06T01:49:44;5.00;73.50
3198;DHT22;1611;49.394;11.136;2024-01-06T01:52:12;5.00;73.80
3198;DHT22;1611;49.394;11.136;2024-01-06T01:54:39;5.00;73.80
3198;DHT22;1611;49.394;11.136;2024-01-06T01:57:06;5.00;74.20
3198;DHT22;1611;49.394;11.136;2024-01-06T01:59:34;5.10;74.50
3198;DHT22;1611;49.394;11.136;2024-01-06T02:02:02;5.00;74.30
3198;DHT22;1611;49.394;11.136;2024-01-06T02:04:29;5.10;74.60
3198;DHT22;1611;49.394;11.136;2024-01-06T02:06:56;5.10;74.10
3198;DHT22;1611;49.394;11.136;2024-01-06T02:09:22;5.10;73.50
3198;DHT22;1611;49.394;11.136;2024-01-06T02:11:52;5.20;73.00
3198;DHT22;1611;49.394;11.136;2024-01-06T02:14:19;5.10;73.10
3198;DHT22;1611;49.394;11.136;2024-01-06T02:16:47;5.20;73.00
3198;DHT22;1611;49.394;11.136;2024-01-06T02:19:16;5.20;72.90
3198;DHT22;1611;49.394;11.136;2024-01-06T02:21:43;5.20;72.90
3198;DHT22;1611;49.394;11.136;2024-01-06T02:24:12;5.30;72.70
3198;DHT22;1611;49.394;11.136;2024-01-06T02:26:38;5.30;72.50
3198;DHT22;1611;49.394;11.136;2024-01-06T02:29:05;5.30;72.40
3198;DHT22;1611;49.394;11.136;2024-01-06T02:31:32;5.30;72.20
3198;DHT22;1611;49.394;11.136;2024-01-06T02:33:59;5.20;72.10
3198;DHT22;1611;49.394;11.136;2024-01-06T02:36:25;5.30;72.00
3198;DHT22;1611;49.394;11.136;2024-01-06T02:38:52;5.30;71.60
3198;DHT22;1611;49.394;11.136;2024-01-06T02:41:20;5.30;71.40
3198;DHT22;1611;49.394;11.136;2024-01-06T02:43:47;5.30;71.50
3198;DHT22;1611;49.394;11.136;2024-01-06T02:46:14;5.40;71.50
3198;DHT22;1611;49.394;11.136;2024-01-06T02:48:40;5.30;71.10
3198;DHT22;1611;49.394;11.136;2024-01-06T02:51:07;5.30;70.50
3198;DHT22;1611;49.394;11.136;2024-01-06T02:53:34;5.30;70.30
3198;DHT22;1611;49.394;11.136;2024-01-06T02:56:01;5.30;69.90
3198;DHT22;1611;49.394;11.136;2024-01-06T02:58:29;5.30;70.50
3198;DHT22;1611;49.394;11.136;2024-01-06T03:00:55;5.40;70.50
3198;DHT22;1611;49.394;11.136;2024-01-06T03:03:22;5.30;70.40
3198;DHT22;1611;49.394;11.136;2024-01-06T03:05:49;5.30;70.60
3198;DHT22;1611;49.394;11.136;2024-01-06T03:08:15;5.30;70.70
3198;DHT22;1611;49.394;11.136;2024-01-06T03:10:42;5.30;70.60
3198;DHT22;1611;49.394;11.136;2024-01-06T03:13:09;5.20;70.70
3198;DHT22;1611;49.394;11.136;2024-01-06T03:15:37;5.30;70.80
3198;DHT22;1611;49.394;11.136;2024-01-06T03:18:04;5.20;71.00
3198;DHT22;1611;49.394;11.136;2024-01-06T03:20:31;5.30;71.10
3198;DHT22;1611;49.394;11.136;2024-01-06T03:22:57;5.30;71.50
3198;DHT22;1611;49.394;11.136;2024-01-06T03:25:24;5.30;71.40
3198;DHT22;1611;49.394;11.136;2024-01-06T03:27:51;5.20;71.50
3198;DHT22;1611;49.394;11.136;2024-01-06T03:30:17;5.20;71.40
3198;DHT22;1611;49.394;11.136;2024-01-06T03:32:45;5.30;71.50
3198;DHT22;1611;49.394;11.136;2024-01-06T03:35:12;5.30;71.50
3198;DHT22;1611;49.394;11.136;2024-01-06T03:37:39;5.30;71.50
3198;DHT22;1611;49.394;11.136;2024-01-06T03:40:07;5.30;70.90
3198;DHT22;1611;49.394;11.136;2024-01-06T03:42:34;5.30;71.20
3198;DHT22;1611;49.394;11.136;2024-01-06T03:45:02;5.30;71.10
3198;DHT22;1611;49.394;11.136;2024-01-06T03:47:29;5.20;70.30
3198;DHT22;1611;49.394;11.136;2024-01-06T03:49:57;5.30;70.40
3198;DHT22;1611;49.394;11.136;2024-01-06T03:52:24;5.30;70.30
3198;DHT22;1611;49.394;11.136;2024-01-06T03:54:50;5.30;70.30
3198;DHT22;1611;49.394;11.136;2024-01-06T03:57:17;5.30;70.50
3198;DHT22;1611;49.394;11.136;2024-01-06T03:59:44;5.20;70.70
3198;DHT22;1611;49.394;11.136;2024-01-06T04:02:10;5.20;70.90
3198;DHT22;1611;49.394;11.136;2024-01-06T04:04:37;5.20;71.50
3198;DHT22;1611;49.394;11.136;2024-01-06T04:07:05;5.10;71.60
3198;DHT22;1611;49.394;11.136;2024-01-06T04:09:32;5.20;71.50
3198;DHT22;1611;49.394;11.136;2024-01-06T04:11:59;5.20;71.60
3198;DHT22;1611;49.394;11.136;2024-01-06T04:14:26;5.20;71.50
3198;DHT22;1611;49.394;11.136;2024-01-06T04:16:53;5.20;71.60
3198;DHT22;1611;49.394;11.136;2024-01-06T04:19:21;5.10;71.70
3198;DHT22;1611;49.394;11.136;2024-01-06T04:21:47;5.20;71.60
3198;DHT22;1611;49.394;11.136;2024-01-06T04:24:15;5.20;71.50
3198;DHT22;1611;49.394;11.136;2024-01-06T04:26:42;5.30;71.20
3198;DHT22;1611;49.394;11.136;2024-01-06T04:29:10;5.20;71.00
3198;DHT22;1611;49.394;11.136;2024-01-06T04:31:37;5.20;71.00
3198;DHT22;1611;49.394;11.136;2024-01-06T04:34:04;5.20;71.30
3198;DHT22;1611;49.394;11.136;2024-01-06T04:36:30;5.20;71.40
3198;DHT22;1611;49.394;11.136;2024-01-06T04:38:57;5.30;71.00
3198;DHT22;1611;49.394;11.136;2024-01-06T04:41:25;5.30;70.90
3198;DHT22;1611;49.394;11.136;2024-01-06T04:43:52;5.20;70.80
3198;DHT22;1611;49.394;11.136;2024-01-06T04:46:18;5.30;71.10
3198;DHT22;1611;49.394;11.136;2024-01-06T04:48:45;5.20;70.90
3198;DHT22;1611;49.394;11.136;2024-01-06T04:51:12;5.20;70.80
3198;DHT22;1611;49.394;11.136;2024-01-06T04:53:39;5.10;71.30
3198;DHT22;1611;49.394;11.136;2024-01-06T04:56:06;5.20;71.00
3198;DHT22;1611;49.394;11.136;2024-01-06T04:58:34;5.10;71.20
3198;DHT22;1611;49.394;11.136;2024-01-06T05:01:01;5.10;71.10
3198;DHT22;1611;49.394;11.136;2024-01-06T05:03:28;5.10;71.20
3198;DHT22;1611;49.394;11.136;2024-01-06T05:05:55;5.10;70.90
3198;DHT22;1611;49.394;11.136;2024-01-06T05:08:21;5.00;70.60
3198;DHT22;1611;49.394;11.136;2024-01-06T05:10:51;4.90;70.60
3198;DHT22;1611;49.394;11.136;2024-01-06T05:13:18;5.00;70.30
3198;DHT22;1611;49.394;11.136;2024-01-06T05:15:46;4.90;70.50
3198;DHT22;1611;49.394;11.136;2024-01-06T05:18:13;4.80;70.40
3198;DHT22;1611;49.394;11.136;2024-01-06T05:20:40;4.80;71.50
3198;DHT22;1611;49.394;11.136;2024-01-06T05:23:07;4.80;70.80
3198;DHT22;1611;49.394;11.136;2024-01-06T05:25:34;4.70;71.40
3198;DHT22;1611;49.394;11.136;2024-01-06T05:28:00;4.70;71.60
3198;DHT22;1611;49.394;11.136;2024-01-06T05:30:27;4.70;71.70
3198;DHT22;1611;49.394;11.136;2024-01-06T05:32:56;4.60;71.90
3198;DHT22;1611;49.394;11.136;2024-01-06T05:35:22;4.60;71.90
3198;DHT22;1611;49.394;11.136;2024-01-06T05:37:49;4.60;71.90
3198;DHT22;1611;49.394;11.136;2024-01-06T05:40:16;4.50;71.90
3198;DHT22;1611;49.394;11.136;2024-01-06T05:42:42;4.50;71.90
3198;DHT22;1611;49.394;11.136;2024-01-06T05:45:10;4.60;71.80
3198;DHT22;1611;49.394;11.136;2024-01-06T05:47:37;4.50;71.90
3198;DHT22;1611;49.394;11.136;2024-01-06T05:50:07;4.50;71.80
3198;DHT22;1611;49.394;11.136;2024-01-06T05:52:34;4.50;71.70
3198;DHT22;1611;49.394;11.136;2024-01-06T05:55:01;4.50;71.40
3198;DHT22;1611;49.394;11.136;2024-01-06T05:57:28;4.50;71.40
3198;DHT22;1611;49.394;11.136;2024-01-06T05:59:54;4.50;71.50
3198;DHT22;1611;49.394;11.136;2024-01-06T06:02:21;4.50;71.10
3198;DHT22;1611;49.394;11.136;2024-01-06T06:04:48;4.50;70.80
3198;DHT22;1611;49.394;11.136;2024-01-06T06:07:16;4.50;70.80
3198;DHT22;1611;49.394;11.136;2024-01-06T06:09:43;4.50;70.20
3198;DHT22;1611;49.394;11.136;2024-01-06T06:12:12;4.50;70.30
3198;DHT22;1611;49.394;11.136;2024-01-06T06:14:39;4.40;70.50
3198;DHT22;1611;49.394;11.136;2024-01-06T06:17:06;4.50;70.60
3198;DHT22;1611;49.394;11.136;2024-01-06T06:19:32;4.50;70.40
3198;DHT22;1611;49.394;11.136;2024-01-06T06:21:59;4.40;70.10
3198;DHT22;1611;49.394;11.136;2024-01-06T06:24:27;4.40;70.30
3198;DHT22;1611;49.394;11.136;2024-01-06T06:26:54;4.40;70.20
3198;DHT22;1611;49.394;11.136;2024-01-06T06:29:20;4.30;70.90
3198;DHT22;1611;49.394;11.136;2024-01-06T06:31:47;4.30;71.10
3198;DHT22;1611;49.394;11.136;2024-01-06T06:34:14;4.20;71.20
3198;DHT22;1611;49.394;11.136;2024-01-06T06:36:41;4.30;70.90
3198;DHT22;1611;49.394;11.136;2024-01-06T06:39:07;4.30;71.30
3198;DHT22;1611;49.394;11.136;2024-01-06T06:41:37;4.30;71.10
3198;DHT22;1611;49.394;11.136;2024-01-06T06:44:04;4.30;71.10
3198;DHT22;1611;49.394;11.136;2024-01-06T06:46:30;4.30;71.40
3198;DHT22;1611;49.394;11.136;2024-01-06T06:48:57;4.30;70.90
3198;DHT22;1611;49.394;11.136;2024-01-06T06:51:24;4.50;70.30
3198;DHT22;1611;49.394;11.136;2024-01-06T06:53:52;4.40;70.20
3198;DHT22;1611;49.394;11.136;2024-01-06T06:56:19;4.50;70.50
3198;DHT22;1611;49.394;11.136;2024-01-06T06:58:47;4.40;70.40
3198;DHT22;1611;49.394;11.136;2024-01-06T07:01:15;4.40;70.30
3198;DHT22;1611;49.394;11.136;2024-01-06T07:03:42;4.40;70.30
3198;DHT22;1611;49.394;11.136;2024-01-06T07:06:12;4.30;70.40
3198;DHT22;1611;49.394;11.136;2024-01-06T07:08:38;4.30;70.70
3198;DHT22;1611;49.394;11.136;2024-01-06T07:11:07;4.40;69.80
3198;DHT22;1611;49.394;11.136;2024-01-06T07:13:34;4.40;69.30
3198;DHT22;1611;49.394;11.136;2024-01-06T07:16:02;4.30;68.80
3198;DHT22;1611;49.394;11.136;2024-01-06T07:18:29;4.30;69.00
3198;DHT22;1611;49.394;11.136;2024-01-06T07:20:56;4.40;68.90
3198;DHT22;1611;49.394;11.136;2024-01-06T07:23:23;4.30;69.40
3198;DHT22;1611;49.394;11.136;2024-01-06T07:25:49;4.30;69.70
3198;DHT22;1611;49.394;11.136;2024-01-06T07:28:16;4.20;70.20
3198;DHT22;1611;49.394;11.136;2024-01-06T07:30:43;4.20;70.60
3198;DHT22;1611;49.394;11.136;2024-01-06T07:33:12;4.20;71.70
3198;DHT22;1611;49.394;11.136;2024-01-06T07:35:39;4.30;70.90
3198;DHT22;1611;49.394;11.136;2024-01-06T07:38:08;4.30;70.90
3198;DHT22;1611;49.394;11.136;2024-01-06T07:40:35;4.30;71.20
3198;DHT22;1611;49.394;11.136;2024-01-06T07:43:02;4.40;70.70
3198;DHT22;1611;49.394;11.136;2024-01-06T07:45:29;4.50;69.80
3198;DHT22;1611;49.394;11.136;2024-01-06T07:47:57;4.50;69.20
3198;DHT22;1611;49.394;11.136;2024-01-06T07:50:25;4.50;69.30
3198;DHT22;1611;49.394;11.136;2024-01-06T07:52:52;4.50;69.30
3198;DHT22;1611;49.394;11.136;2024-01-06T07:55:18;4.50;69.90
3198;DHT22;1611;49.394;11.136;2024-01-06T07:57:45;4.50;69.80
3198;DHT22;1611;49.394;11.136;2024-01-06T08:00:13;4.60;69.30
3198;DHT22;1611;49.394;11.136;2024-01-06T08:02:40;4.60;69.30
3198;DHT22;1611;49.394;11.136;2024-01-06T08:05:07;4.60;69.00
3198;DHT22;1611;49.394;11.136;2024-01-06T08:07:35;4.60;69.60
3198;DHT22;1611;49.394;11.136;2024-01-06T08:10:02;4.70;69.50
3198;DHT22;1611;49.394;11.136;2024-01-06T08:12:30;4.70;69.60
3198;DHT22;1611;49.394;11.136;2024-01-06T08:14:57;4.70;69.40
3198;DHT22;1611;49.394;11.136;2024-01-06T08:17:23;4.80;69.00
3198;DHT22;1611;49.394;11.136;2024-01-06T08:19:50;4.70;68.80
3198;DHT22;1611;49.394;11.136;2024-01-06T08:22:17;4.70;69.40
3198;DHT22;1611;49.394;11.136;2024-01-06T08:24:45;4.80;68.80
3198;DHT22;1611;49.394;11.136;2024-01-06T08:27:12;4.90;67.80
3198;DHT22;1611;49.394;11.136;2024-01-06T08:29:39;5.00;67.60
3198;DHT22;1611;49.394;11.136;2024-01-06T08:32:06;5.10;67.30
3198;DHT22;1611;49.394;11.136;2024-01-06T08:34:32;5.10;66.90
3198;DHT22;1611;49.394;11.136;2024-01-06T08:36:59;5.10;67.10
3198;DHT22;1611;49.394;11.136;2024-01-06T08:39:26;5.20;67.00
3198;DHT22;1611;49.394;11.136;2024-01-06T08:41:54;5.30;72.50
3198;DHT22;1611;49.394;11.136;2024-01-06T08:44:20;5.40;75.30
3198;DHT22;1611;49.394;11.136;2024-01-06T08:46:47;5.40;70.70
3198;DHT22;1611;49.394;11.136;2024-01-06T08:49:14;5.50;69.00
3198;DHT22;1611;49.394;11.136;2024-01-06T08:51:41;5.50;67.90
3198;DHT22;1611;49.394;11.136;2024-01-06T08:54:07;5.50;67.70
3198;DHT22;1611;49.394;11.136;2024-01-06T08:56:34;5.50;67.50
3198;DHT22;1611;49.394;11.136;2024-01-06T08:59:02;5.50;67.50
3198;DHT22;1611;49.394;11.136;2024-01-06T09:01:29;5.50;67.60
3198;DHT22;1611;49.394;11.136;2024-01-06T09:03:57;5.50;67.30
3198;DHT22;1611;49.394;11.136;2024-01-06T09:06:23;5.50;67.40
3198;DHT22;1611;49.394;11.136;2024-01-06T09:08:50;5.60;67.20
3198;DHT22;1611;49.394;11.136;2024-01-06T09:11:17;5.60;66.80
3198;DHT22;1611;49.394;11.136;2024-01-06T09:13:42;5.70;66.70
3198;DHT22;1611;49.394;11.136;2024-01-06T09:16:11;5.80;69.90
3198;DHT22;1611;49.394;11.136;2024-01-06T09:18:37;5.90;67.70
3198;DHT22;1611;49.394;11.136;2024-01-06T09:21:04;5.80;67.70
3198;DHT22;1611;49.394;11.136;2024-01-06T09:23:32;6.00;67.30
3198;DHT22;1611;49.394;11.136;2024-01-06T09:25:59;6.10;66.80
3198;DHT22;1611;49.394;11.136;2024-01-06T09:28:25;6.00;66.80
3198;DHT22;1611;49.394;11.136;2024-01-06T09:30:53;6.10;66.10
3198;DHT22;1611;49.394;11.136;2024-01-06T09:33:22;6.10;65.70
3198;DHT22;1611;49.394;11.136;2024-01-06T09:35:49;6.20;66.30
3198;DHT22;1611;49.394;11.136;2024-01-06T09:38:16;6.30;66.50
3198;DHT22;1611;49.394;11.136;2024-01-06T09:40:44;6.40;65.80
3198;DHT22;1611;49.394;11.136;2024-01-06T09:43:11;6.50;64.50
3198;DHT22;1611;49.394;11.136;2024-01-06T09:45:38;6.60;64.10
3198;DHT22;1611;49.394;11.136;2024-01-06T09:48:12;6.60;63.60
3198;DHT22;1611;49.394;11.136;2024-01-06T09:50:42;6.60;63.70
3198;DHT22;1611;49.394;11.136;2024-01-06T09:53:11;6.60;62.90
3198;DHT22;1611;49.394;11.136;2024-01-06T09:55:38;6.60;62.30
3198;DHT22;1611;49.394;11.136;2024-01-06T09:58:05;6.60;61.20
3198;DHT22;1611;49.394;11.136;2024-01-06T10:00:32;6.60;60.70
3198;DHT22;1611;49.394;11.136;2024-01-06T10:02:59;6.70;65.10
3198;DHT22;1611;49.394;11.136;2024-01-06T10:05:25;6.60;62.00
3198;DHT22;1611;49.394;11.136;2024-01-06T10:07:54;6.60;61.20
3198;DHT22;1611;49.394;11.136;2024-01-06T10:10:22;6.60;62.00
3198;DHT22;1611;49.394;11.136;2024-01-06T10:12:53;6.70;61.10
3198;DHT22;1611;49.394;11.136;2024-01-06T10:15:20;6.70;60.60
3198;DHT22;1611;49.394;11.136;2024-01-06T10:17:47;6.80;60.20
3198;DHT22;1611;49.394;11.136;2024-01-06T10:20:14;6.80;60.00
3198;DHT22;1611;49.394;11.136;2024-01-06T10:22:43;6.80;60.20
3198;DHT22;1611;49.394;11.136;2024-01-06T10:25:11;6.80;60.00
3198;DHT22;1611;49.394;11.136;2024-01-06T10:27:39;6.80;59.60
3198;DHT22;1611;49.394;11.136;2024-01-06T10:30:07;6.90;59.60
3198;DHT22;1611;49.394;11.136;2024-01-06T10:32:35;6.90;59.00
3198;DHT22;1611;49.394;11.136;2024-01-06T10:35:03;6.90;58.50
3198;DHT22;1611;49.394;11.136;2024-01-06T10:37:31;7.00;58.90
3198;DHT22;1611;49.394;11.136;2024-01-06T10:40:08;6.90;59.10
3198;DHT22;1611;49.394;11.136;2024-01-06T10:42:38;7.10;58.80
3198;DHT22;1611;49.394;11.136;2024-01-06T10:45:06;7.10;58.30
3198;DHT22;1611;49.394;11.136;2024-01-06T10:47:34;7.10;57.20
3198;DHT22;1611;49.394;11.136;2024-01-06T10:50:01;7.10;57.40
3198;DHT22;1611;49.394;11.136;2024-01-06T10:52:29;7.30;57.50
3198;DHT22;1611;49.394;11.136;2024-01-06T10:54:57;7.30;57.10
3198;DHT22;1611;49.394;11.136;2024-01-06T10:57:24;7.30;56.20
3198;DHT22;1611;49.394;11.136;2024-01-06T10:59:52;7.20;56.40
3198;DHT22;1611;49.394;11.136;2024-01-06T11:02:19;7.20;57.30
3198;DHT22;1611;49.394;11.136;2024-01-06T11:04:47;7.30;56.60
3198;DHT22;1611;49.394;11.136;2024-01-06T11:07:16;7.20;56.50
3198;DHT22;1611;49.394;11.136;2024-01-06T11:09:50;7.30;56.90
3198;DHT22;1611;49.394;11.136;2024-01-06T11:12:18;7.50;64.50
3198;DHT22;1611;49.394;11.136;2024-01-06T11:14:45;7.40;58.40
3198;DHT22;1611;49.394;11.136;2024-01-06T11:17:49;7.40;60.00
3198;DHT22;1611;49.394;11.136;2024-01-06T11:20:19;7.80;62.90
3198;DHT22;1611;49.394;11.136;2024-01-06T11:22:46;7.80;56.60
3198;DHT22;1611;49.394;11.136;2024-01-06T11:25:14;7.80;54.40
3198;DHT22;1611;49.394;11.136;2024-01-06T11:27:42;7.70;54.50
3198;DHT22;1611;49.394;11.136;2024-01-06T11:30:19;7.70;54.40
3198;DHT22;1611;49.394;11.136;2024-01-06T11:32:47;7.70;53.80
3198;DHT22;1611;49.394;11.136;2024-01-06T11:35:15;7.80;53.40
3198;DHT22;1611;49.394;11.136;2024-01-06T11:37:54;7.90;52.40
3198;DHT22;1611;49.394;11.136;2024-01-06T11:40:25;8.10;52.50
3198;DHT22;1611;49.394;11.136;2024-01-06T11:43:01;8.10;51.10
3198;DHT22;1611;49.394;11.136;2024-01-06T11:45:29;8.10;50.30
3198;DHT22;1611;49.394;11.136;2024-01-06T11:47:58;8.10;51.20
3198;DHT22;1611;49.394;11.136;2024-01-06T11:50:25;8.10;51.20
3198;DHT22;1611;49.394;11.136;2024-01-06T11:52:52;8.10;51.90
3198;DHT22;1611;49.394;11.136;2024-01-06T11:55:19;8.20;51.20
3198;DHT22;1611;49.394;11.136;2024-01-06T11:57:46;8.20;50.50
3198;DHT22;1611;49.394;11.136;2024-01-06T12:00:15;8.20;50.10
3198;DHT22;1611;49.394;11.136;2024-01-06T12:02:42;8.20;49.20
3198;DHT22;1611;49.394;11.136;2024-01-06T12:05:14;8.30;49.00
3198;DHT22;1611;49.394;11.136;2024-01-06T12:07:41;8.20;48.40
3198;DHT22;1611;49.394;11.136;2024-01-06T12:10:09;8.10;48.50
3198;DHT22;1611;49.394;11.136;2024-01-06T12:12:35;8.20;48.50
3198;DHT22;1611;49.394;11.136;2024-01-06T12:15:03;8.20;48.60
3198;DHT22;1611;49.394;11.136;2024-01-06T12:17:31;8.20;48.40
3198;DHT22;1611;49.394;11.136;2024-01-06T12:19:58;8.20;48.20
3198;DHT22;1611;49.394;11.136;2024-01-06T12:22:26;8.20;47.50
3198;DHT22;1611;49.394;11.136;2024-01-06T12:24:53;8.20;48.50
3198;DHT22;1611;49.394;11.136;2024-01-06T12:27:20;8.10;47.80
3198;DHT22;1611;49.394;11.136;2024-01-06T12:29:47;8.20;48.10
3198;DHT22;1611;49.394;11.136;2024-01-06T12:32:13;8.30;48.40
3198;DHT22;1611;49.394;11.136;2024-01-06T12:34:40;8.40;48.20
3198;DHT22;1611;49.394;11.136;2024-01-06T12:37:07;8.40;47.20
3198;DHT22;1611;49.394;11.136;2024-01-06T12:39:35;8.30;47.80
3198;DHT22;1611;49.394;11.136;2024-01-06T12:42:02;8.40;49.10
3198;DHT22;1611;49.394;11.136;2024-01-06T12:44:29;8.40;49.50
3198;DHT22;1611;49.394;11.136;2024-01-06T12:46:58;8.30;48.50
3198;DHT22;1611;49.394;11.136;2024-01-06T12:49:24;8.30;49.80
3198;DHT22;1611;49.394;11.136;2024-01-06T12:51:51;8.30;49.50
3198;DHT22;1611;49.394;11.136;2024-01-06T12:54:18;8.20;47.30
3198;DHT22;1611;49.394;11.136;2024-01-06T12:56:46;8.20;47.50
3198;DHT22;1611;49.394;11.136;2024-01-06T12:59:13;8.00;47.70
3198;DHT22;1611;49.394;11.136;2024-01-06T13:01:40;7.80;48.70
3198;DHT22;1611;49.394;11.136;2024-01-06T13:04:07;7.70;49.70
3198;DHT22;1611;49.394;11.136;2024-01-06T13:06:34;7.50;48.50
3198;DHT22;1611;49.394;11.136;2024-01-06T13:09:01;7.40;49.00
3198;DHT22;1611;49.394;11.136;2024-01-06T13:11:32;7.40;49.10
3198;DHT22;1611;49.394;11.136;2024-01-06T13:14:01;7.40;49.00
3198;DHT22;1611;49.394;11.136;2024-01-06T13:16:27;7.30;49.40
3198;DHT22;1611;49.394;11.136;2024-01-06T13:18:54;7.30;49.90
3198;DHT22;1611;49.394;11.136;2024-01-06T13:21:21;7.30;50.60
3198;DHT22;1611;49.394;11.136;2024-01-06T13:23:48;7.30;50.40
3198;DHT22;1611;49.394;11.136;2024-01-06T13:26:14;7.30;50.40
3198;DHT22;1611;49.394;11.136;2024-01-06T13:28:41;7.30;50.00
3198;DHT22;1611;49.394;11.136;2024-01-06T13:31:10;7.30;50.20
3198;DHT22;1611;49.394;11.136;2024-01-06T13:33:37;7.30;50.40
3198;DHT22;1611;49.394;11.136;2024-01-06T13:36:04;7.30;50.60
3198;DHT22;1611;49.394;11.136;2024-01-06T13:38:32;7.30;50.70
3198;DHT22;1611;49.394;11.136;2024-01-06T13:40:58;7.20;50.10
3198;DHT22;1611;49.394;11.136;2024-01-06T13:43:25;7.20;50.30
3198;DHT22;1611;49.394;11.136;2024-01-06T13:45:52;7.10;50.80
3198;DHT22;1611;49.394;11.136;2024-01-06T13:48:20;7.20;51.00
3198;DHT22;1611;49.394;11.136;2024-01-06T13:50:47;7.20;50.30
3198;DHT22;1611;49.394;11.136;2024-01-06T13:53:14;7.30;50.90
3198;DHT22;1611;49.394;11.136;2024-01-06T13:55:41;7.30;50.70
3198;DHT22;1611;49.394;11.136;2024-01-06T13:58:08;7.30;50.70
3198;DHT22;1611;49.394;11.136;2024-01-06T14:00:35;7.30;50.20
3198;DHT22;1611;49.394;11.136;2024-01-06T14:03:03;7.40;50.40
3198;DHT22;1611;49.394;11.136;2024-01-06T14:05:33;7.30;49.80
3198;DHT22;1611;49.394;11.136;2024-01-06T14:08:00;7.40;49.80
3198;DHT22;1611;49.394;11.136;2024-01-06T14:10:27;7.30;50.00
3198;DHT22;1611;49.394;11.136;2024-01-06T14:12:55;7.20;50.30
3198;DHT22;1611;49.394;11.136;2024-01-06T14:15:22;7.30;51.40
3198;DHT22;1611;49.394;11.136;2024-01-06T14:17:49;7.30;51.70
3198;DHT22;1611;49.394;11.136;2024-01-06T14:20:17;7.10;52.20
3198;DHT22;1611;49.394;11.136;2024-01-06T14:22:45;7.20;52.90
3198;DHT22;1611;49.394;11.136;2024-01-06T14:25:12;7.10;51.80
3198;DHT22;1611;49.394;11.136;2024-01-06T14:27:39;7.00;52.10
3198;DHT22;1611;49.394;11.136;2024-01-06T14:30:07;7.00;52.20
3198;DHT22;1611;49.394;11.136;2024-01-06T14:32:35;7.00;52.70
3198;DHT22;1611;49.394;11.136;2024-01-06T14:35:02;7.00;53.10
3198;DHT22;1611;49.394;11.136;2024-01-06T14:37:29;6.90;53.50
3198;DHT22;1611;49.394;11.136;2024-01-06T14:39:57;7.00;55.00
3198;DHT22;1611;49.394;11.136;2024-01-06T14:42:24;7.00;55.30
3198;DHT22;1611;49.394;11.136;2024-01-06T14:44:50;7.00;56.10
3198;DHT22;1611;49.394;11.136;2024-01-06T14:47:17;7.00;55.80
3198;DHT22;1611;49.394;11.136;2024-01-06T14:49:44;7.00;55.90
3198;DHT22;1611;49.394;11.136;2024-01-06T14:52:10;7.10;55.80
3198;DHT22;1611;49.394;11.136;2024-01-06T14:54:37;7.00;55.90
3198;DHT22;1611;49.394;11.136;2024-01-06T14:57:05;7.00;56.20
3198;DHT22;1611;49.394;11.136;2024-01-06T14:59:33;7.00;56.20
3198;DHT22;1611;49.394;11.136;2024-01-06T15:02:02;7.00;56.20
3198;DHT22;1611;49.394;11.136;2024-01-06T15:04:29;7.00;56.30
3198;DHT22;1611;49.394;11.136;2024-01-06T15:06:55;7.00;56.50
3198;DHT22;1611;49.394;11.136;2024-01-06T15:09:22;7.00;56.40
3198;DHT22;1611;49.394;11.136;2024-01-06T15:11:51;7.00;56.50
3198;DHT22;1611;49.394;11.136;2024-01-06T15:14:19;6.90;56.50
3198;DHT22;1611;49.394;11.136;2024-01-06T15:16:45;7.00;55.90
3198;DHT22;1611;49.394;11.136;2024-01-06T15:19:13;7.00;55.70
3198;DHT22;1611;49.394;11.136;2024-01-06T15:21:39;6.90;56.10
3198;DHT22;1611;49.394;11.136;2024-01-06T15:24:08;6.90;56.60
3198;DHT22;1611;49.394;11.136;2024-01-06T15:26:34;7.00;56.50
3198;DHT22;1611;49.394;11.136;2024-01-06T15:29:01;6.90;56.60
3198;DHT22;1611;49.394;11.136;2024-01-06T15:31:30;6.90;56.70
3198;DHT22;1611;49.394;11.136;2024-01-06T15:33:57;6.90;56.10
3198;DHT22;1611;49.394;11.136;2024-01-06T15:36:23;6.70;56.50
3198;DHT22;1611;49.394;11.136;2024-01-06T15:38:50;6.80;56.90
3198;DHT22;1611;49.394;11.136;2024-01-06T15:41:17;6.80;56.90
3198;DHT22;1611;49.394;11.136;2024-01-06T15:43:44;6.80;57.00
3198;DHT22;1611;49.394;11.136;2024-01-06T15:46:10;6.80;56.90
3198;DHT22;1611;49.394;11.136;2024-01-06T15:48:39;6.80;56.90
3198;DHT22;1611;49.394;11.136;2024-01-06T15:51:06;6.70;57.40
3198;DHT22;1611;49.394;11.136;2024-01-06T15:53:32;6.60;57.70
3198;DHT22;1611;49.394;11.136;2024-01-06T15:56:00;6.60;57.90
3198;DHT22;1611;49.394;11.136;2024-01-06T15:58:27;6.60;57.90
3198;DHT22;1611;49.394;11.136;2024-01-06T16:00:53;6.50;58.60
3198;DHT22;1611;49.394;11.136;2024-01-06T16:03:20;6.40;58.20